createdAt,value
2018-06-08T00:00:17.760Z,7.80
2018-06-08T00:02:46.619Z,7.77
2018-06-08T00:05:15.498Z,9.13
2018-06-08T00:07:44.374Z,8.03
2018-06-08T00:10:13.251Z,8.13
2018-06-08T00:12:42.114Z,7.90
2018-06-08T00:15:10.986Z,7.90
2018-06-08T00:17:39.850Z,7.97
2018-06-08T00:20:08.782Z,7.70
2018-06-08T00:22:37.587Z,8.00
2018-06-08T00:25:06.503Z,8.07
2018-06-08T00:27:35.366Z,8.63
2018-06-08T00:30:04.365Z,8.23
2018-06-08T00:32:33.227Z,7.77
2018-06-08T00:35:02.082Z,8.03
2018-06-08T00:37:31.003Z,7.70
2018-06-08T00:39:59.825Z,7.80
2018-06-08T00:42:28.484Z,7.77
2018-06-08T00:44:57.205Z,8.23
2018-06-08T00:47:25.917Z,8.20
2018-06-08T00:49:54.646Z,8.30
2018-06-08T00:52:23.519Z,7.83
2018-06-08T00:54:52.575Z,7.70
2018-06-08T00:57:21.455Z,7.97
2018-06-08T00:59:50.309Z,8.20
2018-06-08T01:02:19.186Z,7.40
2018-06-08T01:04:48.038Z,8.13
2018-06-08T01:07:16.926Z,8.20
2018-06-08T01:09:45.758Z,8.70
2018-06-08T01:12:14.621Z,8.10
2018-06-08T01:14:43.766Z,8.53
2018-06-08T01:17:12.602Z,8.23
2018-06-08T01:19:41.535Z,7.53
2018-06-08T01:22:10.371Z,8.13
2018-06-08T01:24:39.213Z,8.03
2018-06-08T01:27:08.078Z,8.03
2018-06-08T01:29:36.923Z,8.83
2018-06-08T01:32:05.569Z,8.00
2018-06-08T01:34:34.292Z,7.80
2018-06-08T01:37:02.948Z,7.43
2018-06-08T01:39:31.675Z,7.53
2018-06-08T01:42:00.569Z,7.50
2018-06-08T01:44:29.410Z,8.60
2018-06-08T01:46:58.257Z,8.20
2018-06-08T01:49:27.141Z,8.30
2018-06-08T01:51:55.991Z,8.07
2018-06-08T01:54:24.849Z,7.63
2018-06-08T01:56:53.691Z,8.47
2018-06-08T01:59:22.418Z,7.73
2018-06-08T02:01:51.137Z,7.57
2018-06-08T02:04:19.998Z,7.97
2018-06-08T02:06:48.858Z,7.90
2018-06-08T02:09:17.717Z,7.83
2018-06-08T02:11:46.935Z,8.17
2018-06-08T02:14:15.798Z,7.90
2018-06-08T02:16:44.646Z,7.17
2018-06-08T02:19:13.502Z,7.80
2018-06-08T02:21:42.355Z,8.37
2018-06-08T02:24:11.210Z,7.70
2018-06-08T02:26:40.055Z,7.67
2018-06-08T02:29:08.914Z,7.53
2018-06-08T02:31:37.759Z,7.90
2018-06-08T02:34:06.624Z,7.33
2018-06-08T02:36:35.467Z,7.80
2018-06-08T02:39:07.043Z,8.00
2018-06-08T02:41:36.346Z,7.90
2018-06-08T02:44:05.214Z,7.13
2018-06-08T02:46:34.058Z,8.13
2018-06-08T02:49:02.928Z,8.53
2018-06-08T02:51:31.769Z,8.03
2018-06-08T02:54:00.618Z,7.50
2018-06-08T02:56:29.481Z,8.37
2018-06-08T02:58:58.333Z,7.87
2018-06-08T03:01:27.190Z,7.57
2018-06-08T03:03:55.909Z,7.77
2018-06-08T03:06:24.663Z,7.13
2018-06-08T03:08:53.506Z,7.87
2018-06-08T03:11:22.377Z,7.30
2018-06-08T03:13:51.221Z,7.83
2018-06-08T03:16:20.085Z,7.30
2018-06-08T03:18:48.925Z,7.17
2018-06-08T03:21:17.787Z,7.43
2018-06-08T03:23:46.659Z,7.83
2018-06-08T03:26:15.803Z,7.33
2018-06-08T03:28:44.645Z,7.83
2018-06-08T03:31:13.505Z,7.87
2018-06-08T03:33:42.350Z,7.63
2018-06-08T03:36:11.210Z,7.60
2018-06-08T03:38:40.060Z,7.63
2018-06-08T03:41:08.918Z,7.60
2018-06-08T03:43:37.763Z,7.57
2018-06-08T03:46:06.623Z,8.27
2018-06-08T03:48:35.476Z,7.20
2018-06-08T03:51:04.330Z,7.47
2018-06-08T03:53:33.174Z,7.10
2018-06-08T03:56:02.091Z,7.70
2018-06-08T03:58:30.890Z,7.27
2018-06-08T04:00:59.758Z,7.80
2018-06-08T04:03:28.609Z,8.17
2018-06-08T04:05:57.502Z,7.30
2018-06-08T04:08:26.341Z,7.53
2018-06-08T04:10:55.179Z,7.47
2018-06-08T04:13:24.051Z,7.30
2018-06-08T04:15:52.994Z,7.50
2018-06-08T04:18:21.716Z,7.63
2018-06-08T04:20:50.426Z,8.13
2018-06-08T04:23:19.290Z,7.80
2018-06-08T04:25:48.148Z,7.93
2018-06-08T04:28:16.994Z,7.10
2018-06-08T04:30:45.838Z,8.30
2018-06-08T04:33:14.703Z,7.53
2018-06-08T04:35:43.426Z,7.70
2018-06-08T04:38:12.166Z,7.77
2018-06-08T04:40:41.013Z,7.37
2018-06-08T04:43:09.862Z,7.93
2018-06-08T04:45:38.701Z,7.47
2018-06-08T04:48:07.557Z,7.40
2018-06-08T04:50:36.434Z,7.03
2018-06-08T04:53:05.157Z,7.87
2018-06-08T04:55:33.882Z,7.70
2018-06-08T04:58:02.740Z,7.33
2018-06-08T05:00:31.578Z,8.00
2018-06-08T05:03:00.471Z,7.53
2018-06-08T05:05:29.109Z,7.93
2018-06-08T05:07:57.862Z,8.03
2018-06-08T05:10:26.714Z,8.00
2018-06-08T05:12:55.599Z,7.20
2018-06-08T05:15:24.455Z,7.10
2018-06-08T05:17:53.314Z,7.10
2018-06-08T05:20:22.183Z,7.80
2018-06-08T05:22:51.052Z,10.37
2018-06-08T05:25:19.922Z,10.33
2018-06-08T05:27:48.774Z,9.67
2018-06-08T05:30:19.959Z,10.60
2018-06-08T05:32:48.819Z,11.10
2018-06-08T05:35:17.698Z,11.77
2018-06-08T05:37:46.602Z,11.57
2018-06-08T05:40:15.493Z,12.87
2018-06-08T05:42:44.373Z,11.50
2018-06-08T05:45:13.298Z,11.97
2018-06-08T05:47:42.145Z,11.20
2018-06-08T05:50:11.014Z,13.13
2018-06-08T05:52:39.871Z,13.90
2018-06-08T05:55:08.738Z,15.03
2018-06-08T05:57:37.596Z,17.50
2018-06-08T06:00:06.502Z,19.53
2018-06-08T06:02:35.363Z,15.63
2018-06-08T06:05:04.239Z,14.93
2018-06-08T06:07:33.109Z,15.23
2018-06-08T06:10:01.983Z,14.87
2018-06-08T06:12:30.835Z,15.40
2018-06-08T06:15:01.209Z,15.73
2018-06-08T06:17:30.024Z,16.10
2018-06-08T06:19:58.964Z,16.37
2018-06-08T06:22:27.828Z,15.63
2018-06-08T06:24:56.706Z,16.37
2018-06-08T06:27:25.577Z,16.70
2018-06-08T06:29:54.437Z,20.87
2018-06-08T06:32:23.382Z,22.30
2018-06-08T06:34:52.234Z,19.47
2018-06-08T06:37:21.218Z,17.70
2018-06-08T06:39:51.340Z,19.73
2018-06-08T06:42:20.247Z,18.17
2018-06-08T06:44:49.162Z,20.80
2018-06-08T06:47:34.163Z,22.10
2018-06-08T06:50:05.338Z,22.33
2018-06-08T06:52:34.445Z,21.17
2018-06-08T06:55:03.314Z,23.07
2018-06-08T06:57:32.207Z,21.57
2018-06-08T07:00:01.075Z,21.60
2018-06-08T07:02:29.982Z,22.90
2018-06-08T07:04:58.794Z,21.07
2018-06-08T07:07:27.688Z,23.40
2018-06-08T07:09:56.551Z,23.13
2018-06-08T07:12:25.419Z,25.27
2018-06-08T07:14:54.277Z,22.33
2018-06-08T07:17:23.154Z,21.93
2018-06-08T07:19:52.018Z,21.33
2018-06-08T07:22:21.202Z,21.37
2018-06-08T07:24:50.088Z,25.70
2018-06-08T07:27:18.949Z,20.93
2018-06-08T07:29:47.806Z,20.67
2018-06-08T07:32:16.679Z,27.80
2018-06-08T07:34:45.538Z,31.50
2018-06-08T07:37:14.410Z,85.67
2018-06-08T07:39:43.262Z,34.23
2018-06-08T07:42:12.134Z,50.53
2018-06-08T07:44:40.999Z,37.27
2018-06-08T07:47:09.929Z,46.13
2018-06-08T07:49:39.566Z,52.03
2018-06-08T07:52:09.323Z,47.93
2018-06-08T07:54:38.257Z,32.80
2018-06-08T07:57:07.107Z,61.50
2018-06-08T07:59:35.971Z,34.23
2018-06-08T08:02:04.845Z,42.47
2018-06-08T08:04:33.703Z,37.17
2018-06-08T08:07:02.608Z,19.73
2018-06-08T08:09:31.463Z,22.37
2018-06-08T08:12:00.346Z,18.53
2018-06-08T08:14:29.201Z,19.83
2018-06-08T08:16:58.071Z,18.77
2018-06-08T08:19:26.926Z,18.23
2018-06-08T08:21:55.845Z,18.80
2018-06-08T08:24:24.666Z,23.47
2018-06-08T08:26:53.326Z,28.27
2018-06-08T08:29:22.075Z,27.67
2018-06-08T08:31:50.942Z,22.33
2018-06-08T08:34:19.852Z,19.20
2018-06-08T08:36:48.934Z,18.73
2018-06-08T08:39:17.666Z,27.53
2018-06-08T08:41:46.527Z,71.57
2018-06-08T08:44:15.382Z,76.40
2018-06-08T08:46:44.273Z,78.63
2018-06-08T08:49:13.182Z,53.83
2018-06-08T08:51:42.048Z,29.53
2018-06-08T08:54:11.011Z,42.20
2018-06-08T08:56:39.863Z,34.43
2018-06-08T08:59:08.701Z,21.20
2018-06-08T09:01:37.345Z,19.90
2018-06-08T09:04:06.095Z,16.33
2018-06-08T09:06:34.973Z,15.50
2018-06-08T09:09:05.398Z,24.87
2018-06-08T09:11:34.247Z,37.17
2018-06-08T09:14:03.130Z,33.27
2018-06-08T09:16:41.087Z,119.60
2018-06-08T09:19:12.010Z,113.13
2018-06-08T09:21:40.730Z,191.90
2018-06-08T09:24:09.989Z,150.20
2018-06-08T09:26:38.637Z,86.57
2018-06-08T09:29:07.406Z,87.17
2018-06-08T09:31:36.287Z,28.07
2018-06-08T09:34:05.130Z,29.17
2018-06-08T09:36:33.999Z,23.73
2018-06-08T09:39:02.911Z,29.90
2018-06-08T09:41:31.795Z,19.97
2018-06-08T09:44:00.667Z,26.83
2018-06-08T09:46:33.807Z,54.90
2018-06-08T09:49:03.325Z,19.37
2018-06-08T09:51:32.239Z,38.27
2018-06-08T09:54:01.106Z,21.93
2018-06-08T09:56:29.999Z,19.97
2018-06-08T09:58:59.074Z,27.37
2018-06-08T10:01:28.630Z,31.23
2018-06-08T10:03:57.510Z,24.53
2018-06-08T10:09:09.113Z,11.57
2018-06-08T10:11:39.003Z,11.33
2018-06-08T10:14:08.162Z,9.57
2018-06-08T10:16:37.068Z,10.37
2018-06-08T10:19:05.890Z,9.87
2018-06-08T10:21:34.758Z,10.33
2018-06-08T10:24:15.645Z,18.43
2018-06-08T10:26:46.026Z,34.43
2018-06-08T10:29:14.894Z,36.30
2018-06-08T10:31:43.914Z,33.13
2018-06-08T10:34:15.428Z,31.23
2018-06-08T10:36:54.071Z,19.60
2018-06-08T10:39:23.495Z,16.60
2018-06-08T10:41:58.320Z,12.83
2018-06-08T10:44:42.546Z,13.03
2018-06-08T10:47:12.445Z,9.93
2018-06-08T10:49:41.961Z,10.10
2018-06-08T10:52:10.781Z,13.33
2018-06-08T10:54:39.654Z,8.80
2018-06-08T10:57:08.763Z,23.40
2018-06-08T10:59:37.626Z,77.50
2018-06-08T11:02:06.480Z,57.33
2018-06-08T11:04:35.341Z,21.03
2018-06-08T11:07:04.400Z,20.43
2018-06-08T11:09:33.269Z,14.50
2018-06-08T11:12:02.171Z,16.03
2018-06-08T11:14:31.007Z,25.37
2018-06-08T11:16:59.869Z,24.93
2018-06-08T11:19:28.526Z,26.53
2018-06-08T11:21:57.259Z,26.33
2018-06-08T11:24:27.149Z,23.37
2018-06-08T11:26:56.071Z,16.27
2018-06-08T11:29:24.923Z,17.73
2018-06-08T11:31:53.812Z,17.93
2018-06-08T11:34:22.683Z,13.60
2018-06-08T11:36:51.534Z,15.47
2018-06-08T11:39:20.468Z,12.87
2018-06-08T11:41:49.270Z,12.57
2018-06-08T11:44:18.162Z,12.27
2018-06-08T11:46:47.033Z,12.00
2018-06-08T11:49:20.434Z,13.93
2018-06-08T11:51:49.642Z,28.00
2018-06-08T11:54:18.517Z,77.60
2018-06-08T11:56:47.407Z,59.08
2018-06-08T11:59:16.258Z,43.57
2018-06-08T12:01:45.172Z,38.78
2018-06-08T12:04:13.998Z,25.70
2018-06-08T12:06:42.909Z,25.72
2018-06-08T12:09:11.954Z,39.67
2018-06-08T12:11:40.830Z,46.30
2018-06-08T12:14:09.701Z,81.07
2018-06-08T12:16:38.567Z,64.62
2018-06-08T12:19:07.448Z,70.43
2018-06-08T12:21:36.145Z,112.37
2018-06-08T12:24:04.892Z,72.57
2018-06-08T12:26:33.763Z,82.42
2018-06-08T12:29:02.625Z,72.73
2018-06-08T12:31:31.503Z,54.42
2018-06-08T12:34:00.355Z,28.00
2018-06-08T12:36:29.253Z,16.65
2018-06-08T12:38:58.119Z,19.85
2018-06-08T12:41:27.007Z,40.43
2018-06-08T12:43:55.862Z,29.18
2018-06-08T12:46:24.933Z,20.97
2018-06-08T12:48:53.794Z,26.45
2018-06-08T12:51:22.659Z,15.98
2018-06-08T12:53:51.519Z,20.35
2018-06-08T12:56:20.386Z,14.78
2018-06-08T12:58:49.239Z,28.77
2018-06-08T13:01:18.117Z,33.25
2018-06-08T13:03:46.988Z,40.80
2018-06-08T13:06:15.891Z,39.90
2018-06-08T13:08:44.751Z,87.02
2018-06-08T13:11:13.613Z,27.03
2018-06-08T13:13:42.469Z,23.57
2018-06-08T13:16:11.335Z,16.73
2018-06-08T13:18:40.184Z,15.70
2018-06-08T13:21:09.070Z,15.30
2018-06-08T13:23:37.923Z,16.57
2018-06-08T13:26:06.794Z,14.53
2018-06-08T13:28:35.646Z,15.07
2018-06-08T13:31:04.488Z,14.07
2018-06-08T13:33:33.355Z,13.77
2018-06-08T13:36:02.227Z,13.47
2018-06-08T13:38:31.082Z,12.80
2018-06-08T13:40:59.952Z,13.33
2018-06-08T13:43:28.825Z,13.03
2018-06-08T13:45:57.699Z,11.80
2018-06-08T13:48:26.559Z,11.93
2018-06-08T13:50:55.414Z,13.57
2018-06-08T13:53:24.386Z,12.73
2018-06-08T13:55:53.239Z,13.73
2018-06-08T13:58:21.901Z,12.60
2018-06-08T14:00:50.634Z,12.87
2018-06-08T14:03:19.505Z,13.13
2018-06-08T14:05:48.364Z,12.53
2018-06-08T14:08:17.246Z,13.60
2018-06-08T14:10:46.414Z,13.67
2018-06-08T14:13:15.290Z,12.93
2018-06-08T14:15:44.143Z,12.93
2018-06-08T14:18:13.022Z,13.17
2018-06-08T14:20:41.874Z,12.50
2018-06-08T14:23:10.746Z,12.20
2018-06-08T14:25:39.595Z,11.10
2018-06-08T14:28:08.454Z,14.27
2018-06-08T14:30:37.329Z,11.60
2018-06-08T14:33:06.250Z,13.57
2018-06-08T14:35:35.070Z,23.30
2018-06-08T14:38:04.005Z,24.90
2018-06-08T14:40:32.742Z,18.37
2018-06-08T14:43:01.615Z,18.00
2018-06-08T14:45:30.465Z,16.63
2018-06-08T14:47:59.350Z,15.03
2018-06-08T14:50:28.196Z,14.03
2018-06-08T14:52:57.066Z,13.83
2018-06-08T14:55:25.919Z,18.13
2018-06-08T14:57:54.791Z,15.63
2018-06-08T15:00:23.646Z,18.30
2018-06-08T15:02:52.523Z,17.57
2018-06-08T15:05:21.378Z,16.67
2018-06-08T15:07:50.274Z,17.07
2018-06-08T15:10:19.131Z,16.13
2018-06-08T15:12:48.011Z,16.70
2018-06-08T15:15:16.737Z,17.80
2018-06-08T15:17:45.483Z,17.20
2018-06-08T15:20:14.335Z,16.93
2018-06-08T15:22:43.211Z,16.90
2018-06-08T15:25:12.066Z,18.90
2018-06-08T15:27:40.938Z,20.57
2018-06-08T15:30:09.799Z,17.77
2018-06-08T15:32:38.687Z,16.87
2018-06-08T15:35:07.542Z,17.67
2018-06-08T15:37:36.456Z,16.37
2018-06-08T15:40:25.244Z,17.33
2018-06-08T15:42:54.090Z,16.40
2018-06-08T15:45:22.974Z,16.40
2018-06-08T15:47:51.821Z,17.53
2018-06-08T15:50:20.686Z,17.83
2018-06-08T15:52:49.586Z,17.83
2018-06-08T15:55:18.464Z,17.87
2018-06-08T15:57:47.350Z,17.93
2018-06-08T16:00:16.222Z,18.20
2018-06-08T16:02:46.333Z,18.27
2018-06-08T16:05:15.191Z,17.53
2018-06-08T16:07:44.066Z,17.90
2018-06-08T16:10:12.934Z,18.77
2018-06-08T16:12:41.773Z,18.00
2018-06-08T16:15:10.654Z,17.17
2018-06-08T16:17:39.573Z,16.60
2018-06-08T16:20:08.567Z,14.77
2018-06-08T16:22:37.444Z,18.03
2018-06-08T16:25:07.423Z,16.27
2018-06-08T16:27:36.282Z,15.87
2018-06-08T16:30:05.293Z,15.13
2018-06-08T16:32:34.122Z,16.63
2018-06-08T16:35:03.005Z,17.27
2018-06-08T16:37:31.854Z,16.20
2018-06-08T16:40:00.718Z,16.17
2018-06-08T16:42:29.583Z,16.07
2018-06-08T16:44:58.453Z,16.40
2018-06-08T16:47:27.302Z,16.00
2018-06-08T16:49:56.161Z,16.23
2018-06-08T16:52:25.014Z,16.97
2018-06-08T16:54:53.882Z,16.03
2018-06-08T16:57:22.734Z,15.93
2018-06-08T16:59:51.610Z,16.83
2018-06-08T17:02:20.673Z,17.07
2018-06-08T17:04:49.545Z,16.87
2018-06-08T17:07:18.430Z,16.03
2018-06-08T17:09:47.310Z,15.53
2018-06-08T17:12:16.994Z,15.90
2018-06-08T17:14:45.870Z,16.53
2018-06-08T17:17:14.845Z,16.77
2018-06-08T17:19:43.578Z,16.67
2018-06-08T17:22:12.317Z,16.20
2018-06-08T17:24:41.202Z,16.73
2018-06-08T17:27:10.223Z,16.67
2018-06-08T17:29:39.093Z,16.40
2018-06-08T17:32:07.962Z,16.83
2018-06-08T17:34:36.842Z,16.40
2018-06-08T17:37:05.735Z,17.10
2018-06-08T17:39:34.606Z,15.47
2018-06-08T17:42:03.521Z,16.90
2018-06-08T17:44:32.346Z,16.23
2018-06-08T17:47:01.225Z,17.00
2018-06-08T17:49:30.253Z,16.60
2018-06-08T17:51:59.132Z,17.30
2018-06-08T17:54:27.993Z,16.90
2018-06-08T17:56:56.873Z,15.60
2018-06-08T17:59:25.733Z,16.83
2018-06-08T18:01:54.613Z,16.80
2018-06-08T18:04:23.479Z,16.10
2018-06-08T18:06:52.382Z,16.63
2018-06-08T18:09:21.245Z,16.57
2018-06-08T18:11:49.982Z,16.23
2018-06-08T18:14:18.714Z,16.70
2018-06-08T18:16:47.589Z,15.87
2018-06-08T18:19:16.457Z,16.50
2018-06-08T18:21:45.333Z,17.13
2018-06-08T18:24:14.202Z,15.33
2018-06-08T18:26:43.087Z,16.10
2018-06-08T18:29:11.951Z,16.20
2018-06-08T18:31:40.684Z,16.90
2018-06-08T18:34:09.426Z,15.90
2018-06-08T18:36:38.305Z,16.33
2018-06-08T18:39:07.450Z,17.17
2018-06-08T18:41:36.343Z,15.23
2018-06-08T18:44:05.201Z,16.10
2018-06-08T18:46:34.082Z,15.90
2018-06-08T18:49:02.938Z,15.37
2018-06-08T18:51:31.826Z,16.00
2018-06-08T18:54:00.690Z,16.67
2018-06-08T18:56:29.570Z,15.40
2018-06-08T18:58:58.434Z,15.63
2018-06-08T19:01:27.323Z,15.57
2018-06-08T19:03:55.965Z,15.73
2018-06-08T19:06:24.734Z,15.47
2018-06-08T19:08:53.598Z,15.83
2018-06-08T19:11:22.498Z,15.57
2018-06-08T19:13:51.362Z,15.60
2018-06-08T19:16:20.005Z,15.73
2018-06-08T19:18:48.758Z,15.37
2018-06-08T19:21:17.619Z,15.30
2018-06-08T19:23:46.507Z,14.83
2018-06-08T19:26:15.362Z,16.13
2018-06-08T19:28:44.242Z,14.37
2018-06-08T19:31:13.110Z,15.80
2018-06-08T19:33:41.980Z,16.37
2018-06-08T19:36:10.851Z,15.93
2018-06-08T19:38:39.725Z,15.00
2018-06-08T19:41:08.594Z,15.80
2018-06-08T19:43:37.473Z,15.53
2018-06-08T19:46:06.334Z,14.23
2018-06-08T19:48:35.210Z,15.63
2018-06-08T19:51:04.070Z,14.50
2018-06-08T19:53:32.952Z,15.53
2018-06-08T19:56:01.814Z,14.43
2018-06-08T19:58:30.748Z,15.93
2018-06-08T20:00:59.558Z,14.77
2018-06-08T20:03:28.438Z,14.83
2018-06-08T20:05:57.319Z,14.60
2018-06-08T20:08:26.205Z,14.90
2018-06-08T20:10:55.076Z,14.40
2018-06-08T20:13:23.942Z,14.90
2018-06-08T20:15:52.806Z,14.90
2018-06-08T20:18:21.465Z,14.53
2018-06-08T20:20:50.206Z,14.50
2018-06-08T20:23:19.091Z,15.67
2018-06-08T20:25:47.957Z,14.80
2018-06-08T20:28:16.879Z,14.90
2018-06-08T20:30:45.689Z,14.57
2018-06-08T20:33:14.565Z,14.13
2018-06-08T20:35:43.422Z,14.30
2018-06-08T20:38:12.307Z,13.47
2018-06-08T20:40:41.249Z,14.00
2018-06-08T20:43:10.054Z,14.00
2018-06-08T20:45:38.921Z,14.13
2018-06-08T20:48:07.929Z,14.17
2018-06-08T20:50:36.789Z,14.43
2018-06-08T20:53:05.692Z,14.13
2018-06-08T20:55:34.551Z,14.70
2018-06-08T20:58:03.217Z,13.07
2018-06-08T21:00:31.969Z,14.27
2018-06-08T21:03:00.845Z,14.27
2018-06-08T21:05:29.743Z,13.87
2018-06-08T21:07:58.614Z,13.67
2018-06-08T21:10:27.487Z,14.33
2018-06-08T21:12:56.338Z,14.63
2018-06-08T21:15:25.214Z,13.17
2018-06-08T21:17:54.067Z,13.60
2018-06-08T21:20:22.933Z,13.93
2018-06-08T21:22:51.648Z,12.73
2018-06-08T21:25:20.402Z,13.63
2018-06-08T21:27:49.258Z,13.27
2018-06-08T21:30:18.130Z,12.50
2018-06-08T21:32:47.025Z,12.73
2018-06-08T21:35:15.890Z,13.10
2018-06-08T21:37:44.746Z,13.30
2018-06-08T21:40:13.610Z,12.90
2018-06-08T21:42:42.466Z,13.17
2018-06-08T21:45:11.407Z,13.33
2018-06-08T21:47:40.257Z,12.90
2018-06-08T21:50:09.132Z,12.70
2018-06-08T21:52:38.009Z,12.73
2018-06-08T21:55:06.893Z,12.73
2018-06-08T21:57:35.752Z,11.47
2018-06-08T22:00:05.702Z,12.67
2018-06-08T22:02:35.002Z,12.10
2018-06-08T22:05:03.887Z,11.30
2018-06-08T22:07:32.593Z,12.77
2018-06-08T22:10:01.302Z,12.30
2018-06-08T22:12:30.166Z,12.40
2018-06-08T22:14:59.050Z,12.17
2018-06-08T22:17:27.910Z,13.23
2018-06-08T22:19:56.779Z,11.70
2018-06-08T22:22:25.662Z,12.00
2018-06-08T22:24:54.527Z,12.10
2018-06-08T22:27:23.405Z,12.23
2018-06-08T22:29:52.394Z,11.83
2018-06-08T22:32:21.775Z,11.40
2018-06-08T22:34:50.658Z,11.50
2018-06-08T22:37:19.518Z,11.73
2018-06-08T22:39:48.397Z,12.70
2018-06-08T22:42:17.258Z,12.40
2018-06-08T22:44:46.129Z,12.10
2018-06-08T22:47:15.002Z,11.67
2018-06-08T22:49:43.877Z,11.43
2018-06-08T22:52:12.746Z,11.57
2018-06-08T22:54:41.617Z,11.57
2018-06-08T22:57:10.478Z,12.10
2018-06-08T22:59:39.363Z,11.33
2018-06-08T23:02:08.226Z,10.40
2018-06-08T23:04:37.096Z,11.33
2018-06-08T23:07:05.983Z,11.20
2018-06-08T23:09:34.831Z,10.97
2018-06-08T23:12:03.706Z,11.60
2018-06-08T23:14:32.569Z,11.63
2018-06-08T23:17:01.501Z,10.83
2018-06-08T23:19:30.318Z,11.10
2018-06-08T23:21:59.194Z,11.00
2018-06-08T23:24:28.038Z,10.83
2018-06-08T23:26:56.906Z,11.83
2018-06-08T23:29:25.762Z,11.00
2018-06-08T23:31:54.630Z,11.10
2018-06-08T23:34:23.483Z,10.40
2018-06-08T23:36:52.345Z,10.70
2018-06-08T23:39:21.198Z,11.30
2018-06-08T23:41:50.061Z,10.87
2018-06-08T23:44:18.922Z,10.90
2018-06-08T23:46:47.797Z,10.57
2018-06-08T23:49:16.638Z,10.40
2018-06-08T23:51:45.510Z,11.37
2018-06-08T23:54:14.368Z,11.00
2018-06-08T23:56:43.238Z,10.77
2018-06-08T23:59:12.094Z,11.03
